Perkinsville, VT (05151)

11:31 AM EDT on September 02, 2014 (GMT -0400)
Pikes Peak | Change Station
CLOSE
Current Station
Personal Weather Station
Location: Weathersfield, VT
Elevation: 1200 ft
Nearby Weather Stations

Elev 1200 ft 43.40 °N, 72.48 °W | Updated 1 minute ago

Overcast
Overcast
76.9 °F
Feels Like 78 °F
N
2.0
Wind Variable Wind from SW
Gusts 2.0 mph

Today
High -- | Low -- °F
--% Chance of Precip.
Yesterday
High -- | Low -- °F
Precip. -- in
6:15 AM 7:23 PM
First Quarter, 52% visible
Pressure 29.89 in
Visibility 10.0 miles
Clouds Few 6000 ft
Overcast 9500 ft
Heat Index 78 °F
Dew Point 72 °F
Humidity 85%
Rainfall 0.00 in
Snow Depth Not available.
UV 2 out of 12
Pollen 6.00 out of 12
Ozone Good
PM2.5 Good
Flu Activity Not available.
METAR KVSF 021454Z AUTO 16006KT 10SM FEW060 OVC095 24/21 A2990 RMK AO2 SLP122 T02390211 58010

More Conditions Fewer Conditions

Pressure 29.89 in
Visibility 10.0 miles
Clouds Few 6000 ft
Overcast 9500 ft
Heat Index 78 °F
Dew Point 72 °F
Humidity 85%
Rainfall 0.00 in
Snow Depth Not available.
UV 2 out of 12
Pollen 6.00 out of 12
Ozone Good
PM2.5 Good
Flu Activity Not available.
METAR KVSF 021454Z AUTO 16006KT 10SM FEW060 OVC095 24/21 A2990 RMK AO2 SLP122 T02390211 58010

More Conditions Fewer Conditions

10-Day Weather Forecast

Almanac

Astronomy

Sep. 02, 2014 Rise Set
Actual Time 6:15 AM EDT 7:23 PM EDT
Civil Twilight 5:45 AM EDT 7:52 PM EDT
Nautical Twilight 5:10 AM EDT 8:27 PM EDT
Astronomical Twilight 4:33 AM EDT 9:04 PM EDT
Moon 2:08 PM EDT No Moon Set
Length of Visible Light 14h 07m
Length of Day
13h 08m
Tomorrow will be 2m 52s shorter.
First Quarter, 52% of the Moon is Illuminated
Today
First Quarter
Sep 8
Full
Sep 15
Last Quarter
Sep 24
New
Oct 1
First Quarter

Today's Extremes

State Highs State Lows

Community

WunderPhotos

Upload Photos

1,749,700 photos uploaded!

Nearby

Air Quality

  Air Quality AQ Index Pollutant
Yesterday Good
OZONE
Yesterday Good
PM2.5
Current Good
PM2.5
Current Good
OZONE
Tuesday Moderate
PM2.5

Snow Depth

Station Depth Elevation
No new snow has been reported.

Earthquake Activity

City Distance Mag. Time & Date
No recent earthquake activity has been reported nearby.
Minimum magnitude displayed is 2.5.

Coastal Water Temperatures

Place Temperature
No Stations Reporting

Nearby Weather Stations